sensor_id;sensor_type;location;lat;lon;timestamp;pressure;altitude;pressure_sealevel;temperature;humidity
35226;BME280;21813;49.686;21.766;2022-12-07T00:01:41;97937.44;;;1.55;100.00
35226;BME280;21813;49.686;21.766;2022-12-07T00:04:09;97930.63;;;1.54;100.00
35226;BME280;21813;49.686;21.766;2022-12-07T00:06:41;97936.44;;;1.58;100.00
35226;BME280;21813;49.686;21.766;2022-12-07T00:09:10;97928.00;;;1.56;100.00
35226;BME280;21813;49.686;21.766;2022-12-07T00:11:39;97933.97;;;1.56;100.00
35226;BME280;21813;49.686;21.766;2022-12-07T00:14:07;97931.28;;;1.58;100.00
35226;BME280;21813;49.686;21.766;2022-12-07T00:16:34;97934.78;;;1.57;100.00
35226;BME280;21813;49.686;21.766;2022-12-07T00:19:01;97922.19;;;1.52;100.00
35226;BME280;21813;49.686;21.766;2022-12-07T00:21:31;97932.47;;;1.52;100.00
35226;BME280;21813;49.686;21.766;2022-12-07T00:23:57;97934.94;;;1.54;100.00
35226;BME280;21813;49.686;21.766;2022-12-07T00:26:27;97932.81;;;1.45;100.00
35226;BME280;21813;49.686;21.766;2022-12-07T00:28:58;97934.66;;;1.43;100.00
35226;BME280;21813;49.686;21.766;2022-12-07T00:31:28;97935.56;;;1.42;100.00
35226;BME280;21813;49.686;21.766;2022-12-07T00:33:55;97940.69;;;1.42;100.00
35226;BME280;21813;49.686;21.766;2022-12-07T00:36:24;97923.69;;;1.39;100.00
35226;BME280;21813;49.686;21.766;2022-12-07T00:38:51;97928.09;;;1.37;100.00
35226;BME280;21813;49.686;21.766;2022-12-07T00:41:20;97935.38;;;1.45;100.00
35226;BME280;21813;49.686;21.766;2022-12-07T00:43:47;97935.38;;;1.45;100.00
35226;BME280;21813;49.686;21.766;2022-12-07T00:46:16;97946.34;;;1.48;100.00
35226;BME280;21813;49.686;21.766;2022-12-07T00:48:41;97941.97;;;1.50;100.00
35226;BME280;21813;49.686;21.766;2022-12-07T00:51:13;97938.63;;;1.48;100.00
35226;BME280;21813;49.686;21.766;2022-12-07T00:53:40;97945.44;;;1.49;100.00
35226;BME280;21813;49.686;21.766;2022-12-07T00:56:08;97940.53;;;1.45;100.00
35226;BME280;21813;49.686;21.766;2022-12-07T00:58:55;97940.69;;;1.42;100.00
35226;BME280;21813;49.686;21.766;2022-12-07T01:01:44;97941.59;;;1.41;100.00
35226;BME280;21813;49.686;21.766;2022-12-07T01:04:16;97937.28;;;1.41;100.00
35226;BME280;21813;49.686;21.766;2022-12-07T01:06:42;97949.13;;;1.44;100.00
35226;BME280;21813;49.686;21.766;2022-12-07T01:09:09;97946.00;;;1.39;100.00
35226;BME280;21813;49.686;21.766;2022-12-07T01:11:35;97945.00;;;1.41;100.00
35226;BME280;21813;49.686;21.766;2022-12-07T01:14:03;97935.72;;;1.39;100.00
35226;BME280;21813;49.686;21.766;2022-12-07T01:16:30;97934.06;;;1.38;100.00
35226;BME280;21813;49.686;21.766;2022-12-07T01:18:58;97935.72;;;1.39;100.00
35226;BME280;21813;49.686;21.766;2022-12-07T01:21:27;97922.94;;;1.37;100.00
35226;BME280;21813;49.686;21.766;2022-12-07T01:23:57;97928.16;;;1.36;100.00
35226;BME280;21813;49.686;21.766;2022-12-07T01:26:24;97927.25;;;1.37;100.00
35226;BME280;21813;49.686;21.766;2022-12-07T01:28:51;97923.19;;;1.32;100.00
35226;BME280;21813;49.686;21.766;2022-12-07T01:31:19;97931.72;;;1.33;100.00
35226;BME280;21813;49.686;21.766;2022-12-07T01:33:48;97925.91;;;1.29;100.00
35226;BME280;21813;49.686;21.766;2022-12-07T01:36:15;97919.94;;;1.29;100.00
35226;BME280;21813;49.686;21.766;2022-12-07T01:38:42;97921.75;;;1.27;100.00
35226;BME280;21813;49.686;21.766;2022-12-07T01:41:08;97928.53;;;1.28;100.00
35226;BME280;21813;49.686;21.766;2022-12-07T01:43:35;97926.03;;;1.26;100.00
35226;BME280;21813;49.686;21.766;2022-12-07T01:46:02;97931.94;;;1.28;100.00
35226;BME280;21813;49.686;21.766;2022-12-07T01:48:36;97922.41;;;1.30;100.00
35226;BME280;21813;49.686;21.766;2022-12-07T01:51:11;97915.47;;;1.32;100.00
35226;BME280;21813;49.686;21.766;2022-12-07T01:53:42;97914.47;;;1.35;100.00
35226;BME280;21813;49.686;21.766;2022-12-07T01:56:11;97905.22;;;1.32;100.00
35226;BME280;21813;49.686;21.766;2022-12-07T01:58:43;97919.72;;;1.33;100.00
35226;BME280;21813;49.686;21.766;2022-12-07T02:01:09;97908.69;;;1.31;100.00
35226;BME280;21813;49.686;21.766;2022-12-07T02:03:42;97899.31;;;1.30;100.00
35226;BME280;21813;49.686;21.766;2022-12-07T02:06:11;97899.19;;;1.33;100.00
35226;BME280;21813;49.686;21.766;2022-12-07T02:08:40;97901.66;;;1.35;100.00
35226;BME280;21813;49.686;21.766;2022-12-07T02:11:07;97903.38;;;1.34;100.00
35226;BME280;21813;49.686;21.766;2022-12-07T02:13:37;97903.53;;;1.31;100.00
35226;BME280;21813;49.686;21.766;2022-12-07T02:21:45;97904.44;;;1.30;100.00
35226;BME280;21813;49.686;21.766;2022-12-07T02:24:23;97915.47;;;1.32;100.00
35226;BME280;21813;49.686;21.766;2022-12-07T02:47:33;97898.94;;;1.21;100.00
35226;BME280;21813;49.686;21.766;2022-12-07T02:50:04;97888.06;;;1.16;100.00
35226;BME280;21813;49.686;21.766;2022-12-07T02:52:30;97890.56;;;1.17;100.00
35226;BME280;21813;49.686;21.766;2022-12-07T02:55:00;97891.34;;;1.19;100.00
35226;BME280;21813;49.686;21.766;2022-12-07T02:57:45;97886.09;;;1.21;100.00
35226;BME280;21813;49.686;21.766;2022-12-07T03:00:28;97877.00;;;1.15;100.00
35226;BME280;21813;49.686;21.766;2022-12-07T03:03:04;97885.28;;;1.20;100.00
35226;BME280;21813;49.686;21.766;2022-12-07T03:06:07;97886.94;;;1.21;100.00
35226;BME280;21813;49.686;21.766;2022-12-07T03:11:21;97873.66;;;1.13;100.00
35226;BME280;21813;49.686;21.766;2022-12-07T03:14:13;97872.00;;;1.12;100.00
35226;BME280;21813;49.686;21.766;2022-12-07T03:17:08;97882.13;;;1.15;100.00
35226;BME280;21813;49.686;21.766;2022-12-07T03:20:02;97877.97;;;1.13;100.00
35226;BME280;21813;49.686;21.766;2022-12-07T03:22:31;97873.00;;;1.10;100.00
35226;BME280;21813;49.686;21.766;2022-12-07T03:25:10;97870.34;;;1.11;100.00
35226;BME280;21813;49.686;21.766;2022-12-07T03:27:54;97876.06;;;1.16;100.00
35226;BME280;21813;49.686;21.766;2022-12-07T03:34:10;97870.19;;;1.14;100.00
35226;BME280;21813;49.686;21.766;2022-12-07T03:36:55;97871.53;;;1.21;100.00
35226;BME280;21813;49.686;21.766;2022-12-07T03:39:28;97873.03;;;1.25;100.00
35226;BME280;21813;49.686;21.766;2022-12-07T03:42:01;97863.72;;;1.24;100.00
35226;BME280;21813;49.686;21.766;2022-12-07T03:44:29;97852.66;;;1.22;100.00
35226;BME280;21813;49.686;21.766;2022-12-07T03:47:13;97846.78;;;1.20;100.00
35226;BME280;21813;49.686;21.766;2022-12-07T03:49:56;97853.44;;;1.24;100.00
35226;BME280;21813;49.686;21.766;2022-12-07T03:52:42;97851.78;;;1.23;100.00
35226;BME280;21813;49.686;21.766;2022-12-07T03:57:47;97841.81;;;1.17;100.00
35226;BME280;21813;49.686;21.766;2022-12-07T04:00:15;97857.63;;;1.25;100.00
35226;BME280;21813;49.686;21.766;2022-12-07T04:02:56;97858.41;;;1.27;100.00
35226;BME280;21813;49.686;21.766;2022-12-07T04:08:04;97855.84;;;1.27;100.00
35226;BME280;21813;49.686;21.766;2022-12-07T04:16:57;97830.53;;;1.37;100.00
35226;BME280;21813;49.686;21.766;2022-12-07T04:19:58;97838.16;;;1.39;100.00
35226;BME280;21813;49.686;21.766;2022-12-07T04:22:47;97832.84;;;1.42;100.00
35226;BME280;21813;49.686;21.766;2022-12-07T04:25:39;97831.84;;;1.44;100.00
35226;BME280;21813;49.686;21.766;2022-12-07T04:32:46;97836.50;;;1.53;100.00
35226;BME280;21813;49.686;21.766;2022-12-07T04:35:14;97830.72;;;1.50;100.00
35226;BME280;21813;49.686;21.766;2022-12-07T04:37:56;97837.22;;;1.57;100.00
35226;BME280;21813;49.686;21.766;2022-12-07T04:40:37;97825.34;;;1.54;100.00
35226;BME280;21813;49.686;21.766;2022-12-07T04:43:04;97838.69;;;1.61;100.00
35226;BME280;21813;49.686;21.766;2022-12-07T04:45:31;97828.56;;;1.58;100.00
35226;BME280;21813;49.686;21.766;2022-12-07T04:48:00;97834.28;;;1.63;100.00
35226;BME280;21813;49.686;21.766;2022-12-07T04:50:26;97838.53;;;1.64;100.00
35226;BME280;21813;49.686;21.766;2022-12-07T04:52:53;97827.66;;;1.59;100.00
35226;BME280;21813;49.686;21.766;2022-12-07T04:55:20;97837.63;;;1.65;100.00
35226;BME280;21813;49.686;21.766;2022-12-07T04:57:47;97832.66;;;1.62;100.00
35226;BME280;21813;49.686;21.766;2022-12-07T05:00:12;97832.41;;;1.66;100.00
35226;BME280;21813;49.686;21.766;2022-12-07T05:02:39;97826.44;;;1.66;100.00
35226;BME280;21813;49.686;21.766;2022-12-07T05:05:05;97818.75;;;1.66;100.00
35226;BME280;21813;49.686;21.766;2022-12-07T05:07:35;97819.66;;;1.65;100.00
35226;BME280;21813;49.686;21.766;2022-12-07T05:10:01;97833.91;;;1.70;100.00
35226;BME280;21813;49.686;21.766;2022-12-07T05:12:28;97827.94;;;1.70;100.00
35226;BME280;21813;49.686;21.766;2022-12-07T05:14:53;97827.84;;;1.71;100.00
35226;BME280;21813;49.686;21.766;2022-12-07T05:17:20;97822.63;;;1.73;100.00
35226;BME280;21813;49.686;21.766;2022-12-07T05:19:46;97817.66;;;1.70;100.00
35226;BME280;21813;49.686;21.766;2022-12-07T05:22:12;97823.41;;;1.75;100.00
35226;BME280;21813;49.686;21.766;2022-12-07T05:24:38;97825.03;;;1.76;100.00
35226;BME280;21813;49.686;21.766;2022-12-07T05:27:05;97820.81;;;1.75;100.00
35226;BME280;21813;49.686;21.766;2022-12-07T05:29:31;97820.81;;;1.75;100.00
35226;BME280;21813;49.686;21.766;2022-12-07T05:31:58;97836.25;;;1.75;100.00
35226;BME280;21813;49.686;21.766;2022-12-07T05:34:24;97836.25;;;1.75;100.00
35226;BME280;21813;49.686;21.766;2022-12-07T05:36:52;97832.91;;;1.73;100.00
35226;BME280;21813;49.686;21.766;2022-12-07T05:39:17;97825.19;;;1.73;100.00
35226;BME280;21813;49.686;21.766;2022-12-07T05:41:47;97834.50;;;1.75;100.00
35226;BME280;21813;49.686;21.766;2022-12-07T05:44:32;97845.56;;;1.76;100.00
35226;BME280;21813;49.686;21.766;2022-12-07T05:46:58;97834.41;;;1.77;100.00
35226;BME280;21813;49.686;21.766;2022-12-07T05:49:24;97841.97;;;1.80;100.00
35226;BME280;21813;49.686;21.766;2022-12-07T05:51:51;97836.91;;;1.78;100.00
35226;BME280;21813;49.686;21.766;2022-12-07T05:54:17;97835.06;;;1.81;100.00
35226;BME280;21813;49.686;21.766;2022-12-07T05:56:45;97831.84;;;1.77;100.00
35226;BME280;21813;49.686;21.766;2022-12-07T05:59:10;97839.41;;;1.80;100.00
35226;BME280;21813;49.686;21.766;2022-12-07T06:01:59;97835.22;;;1.77;100.00
35226;BME280;21813;49.686;21.766;2022-12-07T06:04:28;97834.25;;;1.80;100.00
35226;BME280;21813;49.686;21.766;2022-12-07T06:07:11;97823.97;;;1.80;100.00
35226;BME280;21813;49.686;21.766;2022-12-07T06:09:37;97823.16;;;1.80;100.00
35226;BME280;21813;49.686;21.766;2022-12-07T06:12:12;97830.09;;;1.77;100.00
35226;BME280;21813;49.686;21.766;2022-12-07T06:14:57;97814.03;;;1.74;100.00
35226;BME280;21813;49.686;21.766;2022-12-07T06:17:26;97822.31;;;1.79;100.00
35226;BME280;21813;49.686;21.766;2022-12-07T06:19:51;97816.34;;;1.78;100.00
35226;BME280;21813;49.686;21.766;2022-12-07T06:22:32;97822.31;;;1.79;100.00
35226;BME280;21813;49.686;21.766;2022-12-07T06:24:59;97820.66;;;1.78;100.00
35226;BME280;21813;49.686;21.766;2022-12-07T06:27:26;97827.44;;;1.79;100.00
35226;BME280;21813;49.686;21.766;2022-12-07T06:29:52;97824.88;;;1.79;100.00
35226;BME280;21813;49.686;21.766;2022-12-07T06:32:18;97827.34;;;1.81;100.00
35226;BME280;21813;49.686;21.766;2022-12-07T06:34:49;97831.59;;;1.82;100.00
35226;BME280;21813;49.686;21.766;2022-12-07T06:37:15;97829.13;;;1.80;100.00
35226;BME280;21813;49.686;21.766;2022-12-07T06:40:10;97825.03;;;1.76;100.00
35226;BME280;21813;49.686;21.766;2022-12-07T06:48:35;97835.16;;;1.79;100.00
35226;BME280;21813;49.686;21.766;2022-12-07T06:51:04;97838.31;;;1.84;100.00
35226;BME280;21813;49.686;21.766;2022-12-07T06:53:30;97838.56;;;1.80;100.00
35226;BME280;21813;49.686;21.766;2022-12-07T06:55:56;97835.88;;;1.81;100.00
35226;BME280;21813;49.686;21.766;2022-12-07T06:58:25;97824.13;;;1.77;100.00
35226;BME280;21813;49.686;21.766;2022-12-07T07:01:18;97831.69;;;1.80;100.00
35226;BME280;21813;49.686;21.766;2022-12-07T07:03:44;97835.16;;;1.79;100.00
35226;BME280;21813;49.686;21.766;2022-12-07T07:06:13;97831.00;;;1.76;100.00
35226;BME280;21813;49.686;21.766;2022-12-07T07:08:39;97824.13;;;1.77;100.00
35226;BME280;21813;49.686;21.766;2022-12-07T07:11:08;97833.56;;;1.76;100.00
35226;BME280;21813;49.686;21.766;2022-12-07T07:13:34;97834.31;;;1.78;100.00
35226;BME280;21813;49.686;21.766;2022-12-07T07:16:01;97827.78;;;1.73;100.00
35226;BME280;21813;49.686;21.766;2022-12-07T07:18:27;97829.25;;;1.77;100.00
35226;BME280;21813;49.686;21.766;2022-12-07T07:20:54;97830.94;;;1.78;100.00
35226;BME280;21813;49.686;21.766;2022-12-07T07:23:26;97828.44;;;1.76;100.00
35226;BME280;21813;49.686;21.766;2022-12-07T07:25:53;97827.59;;;1.76;100.00
35226;BME280;21813;49.686;21.766;2022-12-07T07:28:18;97826.63;;;1.78;100.00
35226;BME280;21813;49.686;21.766;2022-12-07T07:30:46;97832.59;;;1.79;100.00
35226;BME280;21813;49.686;21.766;2022-12-07T07:33:12;97829.13;;;1.80;100.00
35226;BME280;21813;49.686;21.766;2022-12-07T07:35:39;97820.66;;;1.78;100.00
35226;BME280;21813;49.686;21.766;2022-12-07T07:38:08;97826.56;;;1.80;100.00
35226;BME280;21813;49.686;21.766;2022-12-07T07:40:48;97821.47;;;1.78;100.00
35226;BME280;21813;49.686;21.766;2022-12-07T07:43:15;97831.59;;;1.82;100.00
35226;BME280;21813;49.686;21.766;2022-12-07T07:45:41;97827.09;;;1.85;100.00
35226;BME280;21813;49.686;21.766;2022-12-07T07:48:07;97832.25;;;1.85;100.00
35226;BME280;21813;49.686;21.766;2022-12-07T07:50:33;97838.16;;;1.87;100.00
35226;BME280;21813;49.686;21.766;2022-12-07T07:53:03;97834.75;;;1.87;100.00
35226;BME280;21813;49.686;21.766;2022-12-07T07:55:30;97841.53;;;1.88;100.00
35226;BME280;21813;49.686;21.766;2022-12-07T07:57:56;97847.19;;;1.94;100.00
35226;BME280;21813;49.686;21.766;2022-12-07T08:00:23;97843.09;;;1.90;100.00
35226;BME280;21813;49.686;21.766;2022-12-07T08:02:56;97849.91;;;1.91;100.00
35226;BME280;21813;49.686;21.766;2022-12-07T08:05:21;97842.06;;;1.94;100.00
35226;BME280;21813;49.686;21.766;2022-12-07T08:07:47;97845.53;;;1.93;100.00
35226;BME280;21813;49.686;21.766;2022-12-07T08:10:16;97853.13;;;1.95;100.00
35226;BME280;21813;49.686;21.766;2022-12-07T08:12:43;97853.06;;;1.96;100.00
35226;BME280;21813;49.686;21.766;2022-12-07T08:16:09;97862.44;;;1.97;100.00
35226;BME280;21813;49.686;21.766;2022-12-07T08:18:36;97862.44;;;1.97;100.00
35226;BME280;21813;49.686;21.766;2022-12-07T08:21:03;97855.63;;;1.96;100.00
35226;BME280;21813;49.686;21.766;2022-12-07T08:23:31;97862.44;;;1.97;100.00
35226;BME280;21813;49.686;21.766;2022-12-07T08:26:04;97864.09;;;1.98;100.00
35226;BME280;21813;49.686;21.766;2022-12-07T08:28:31;97862.25;;;2.00;100.00
35226;BME280;21813;49.686;21.766;2022-12-07T08:31:02;97862.13;;;2.03;100.00
35226;BME280;21813;49.686;21.766;2022-12-07T08:33:28;97860.28;;;2.05;100.00
35226;BME280;21813;49.686;21.766;2022-12-07T08:35:54;97858.63;;;2.04;100.00
35226;BME280;21813;49.686;21.766;2022-12-07T08:38:19;97870.56;;;2.05;100.00
35226;BME280;21813;49.686;21.766;2022-12-07T08:40:56;97868.75;;;2.07;100.00
35226;BME280;21813;49.686;21.766;2022-12-07T08:43:22;97875.53;;;2.08;100.00
35226;BME280;21813;49.686;21.766;2022-12-07T08:46:00;97872.97;;;2.08;100.00
35226;BME280;21813;49.686;21.766;2022-12-07T08:48:29;97873.72;;;2.10;100.00
35226;BME280;21813;49.686;21.766;2022-12-07T08:50:56;97869.41;;;2.11;100.00
35226;BME280;21813;49.686;21.766;2022-12-07T08:53:22;97874.47;;;2.12;100.00
35226;BME280;21813;49.686;21.766;2022-12-07T08:55:48;97875.28;;;2.13;100.00
35226;BME280;21813;49.686;21.766;2022-12-07T08:58:15;97873.53;;;2.13;100.00
35226;BME280;21813;49.686;21.766;2022-12-07T09:00:41;97866.78;;;2.12;100.00
35226;BME280;21813;49.686;21.766;2022-12-07T09:03:09;97866.41;;;2.18;100.00
35226;BME280;21813;49.686;21.766;2022-12-07T09:05:35;97868.25;;;2.16;100.00
35226;BME280;21813;49.686;21.766;2022-12-07T09:08:05;97868.09;;;2.19;100.00
35226;BME280;21813;49.686;21.766;2022-12-07T09:10:31;97872.22;;;2.22;100.00
35226;BME280;21813;49.686;21.766;2022-12-07T09:12:58;97869.56;;;2.23;100.00
35226;BME280;21813;49.686;21.766;2022-12-07T09:15:28;97866.09;;;2.25;100.00
35226;BME280;21813;49.686;21.766;2022-12-07T09:17:54;97862.50;;;2.27;100.00
35226;BME280;21813;49.686;21.766;2022-12-07T09:20:20;97871.06;;;2.28;100.00
35226;BME280;21813;49.686;21.766;2022-12-07T09:22:48;97866.50;;;2.33;100.00
35226;BME280;21813;49.686;21.766;2022-12-07T09:25:13;97869.06;;;2.33;100.00
35226;BME280;21813;49.686;21.766;2022-12-07T09:27:41;97866.41;;;2.34;100.00
35226;BME280;21813;49.686;21.766;2022-12-07T09:30:07;97862.94;;;2.35;100.00
35226;BME280;21813;49.686;21.766;2022-12-07T09:32:34;97856.97;;;2.35;100.00
35226;BME280;21813;49.686;21.766;2022-12-07T09:35:00;97864.56;;;2.36;100.00
35226;BME280;21813;49.686;21.766;2022-12-07T09:37:26;97854.47;;;2.33;100.00
35226;BME280;21813;49.686;21.766;2022-12-07T09:39:52;97858.63;;;2.36;100.00
35226;BME280;21813;49.686;21.766;2022-12-07T09:42:41;97861.03;;;2.39;100.00
35226;BME280;21813;49.686;21.766;2022-12-07T09:45:17;97868.75;;;2.39;100.00
35226;BME280;21813;49.686;21.766;2022-12-07T09:47:45;97859.44;;;2.36;100.00
35226;BME280;21813;49.686;21.766;2022-12-07T09:50:23;97862.13;;;2.35;100.00
35226;BME280;21813;49.686;21.766;2022-12-07T09:52:54;97862.75;;;2.38;100.00
35226;BME280;21813;49.686;21.766;2022-12-07T09:55:27;97858.44;;;2.39;100.00
35226;BME280;21813;49.686;21.766;2022-12-07T09:57:57;97854.22;;;2.38;100.00
35226;BME280;21813;49.686;21.766;2022-12-07T10:00:24;97858.28;;;2.42;100.00
35226;BME280;21813;49.686;21.766;2022-12-07T10:03:02;97856.47;;;2.44;100.00
35226;BME280;21813;49.686;21.766;2022-12-07T10:05:37;97851.13;;;2.47;100.00
35226;BME280;21813;49.686;21.766;2022-12-07T10:08:05;97847.66;;;2.48;100.00
35226;BME280;21813;49.686;21.766;2022-12-07T10:10:33;97843.25;;;2.50;100.00
35226;BME280;21813;49.686;21.766;2022-12-07T10:13:06;97852.47;;;2.54;100.00
35226;BME280;21813;49.686;21.766;2022-12-07T10:21:17;97838.16;;;2.64;100.00
35226;BME280;21813;49.686;21.766;2022-12-07T10:26:40;97839.47;;;2.71;100.00
35226;BME280;21813;49.686;21.766;2022-12-07T10:29:20;97846.28;;;2.72;100.00
35226;BME280;21813;49.686;21.766;2022-12-07T10:32:00;97851.25;;;2.75;100.00
35226;BME280;21813;49.686;21.766;2022-12-07T10:34:37;97845.19;;;2.76;100.00
35226;BME280;21813;49.686;21.766;2022-12-07T10:39:57;97856.41;;;2.75;100.00
35226;BME280;21813;49.686;21.766;2022-12-07T10:42:23;97855.56;;;2.75;100.00
35226;BME280;21813;49.686;21.766;2022-12-07T10:52:45;97865.72;;;2.62;100.00
35226;BME280;21813;49.686;21.766;2022-12-07T10:55:23;97870.22;;;2.58;100.00
35226;BME280;21813;49.686;21.766;2022-12-07T11:00:41;97861.09;;;2.53;100.00
35226;BME280;21813;49.686;21.766;2022-12-07T11:11:38;97852.81;;;2.48;100.00
35226;BME280;21813;49.686;21.766;2022-12-07T11:22:17;97842.50;;;2.48;100.00
35226;BME280;21813;49.686;21.766;2022-12-07T11:24:56;97849.47;;;2.46;100.00
35226;BME280;21813;49.686;21.766;2022-12-07T11:30:23;97850.56;;;2.42;100.00
35226;BME280;21813;49.686;21.766;2022-12-07T11:38:21;97857.63;;;2.38;100.00
35226;BME280;21813;49.686;21.766;2022-12-07T11:40:51;97861.03;;;2.39;100.00
35226;BME280;21813;49.686;21.766;2022-12-07T11:44:24;97849.97;;;2.37;100.00
35226;BME280;21813;49.686;21.766;2022-12-07T11:46:47;97850.81;;;2.37;100.00
35226;BME280;21813;49.686;21.766;2022-12-07T11:49:47;97848.34;;;2.36;100.00
35226;BME280;21813;49.686;21.766;2022-12-07T11:52:32;97852.47;;;2.38;100.00
35226;BME280;21813;49.686;21.766;2022-12-07T11:55:02;97847.41;;;2.37;100.00
35226;BME280;21813;49.686;21.766;2022-12-07T11:57:42;97844.94;;;2.35;100.00
35226;BME280;21813;49.686;21.766;2022-12-07T12:00:15;97858.63;;;2.36;100.00
35226;BME280;21813;49.686;21.766;2022-12-07T12:02:53;97850.16;;;2.34;100.00
35226;BME280;21813;49.686;21.766;2022-12-07T12:05:24;97844.13;;;2.35;100.00
35226;BME280;21813;49.686;21.766;2022-12-07T12:10:50;97846.75;;;2.33;100.00
35226;BME280;21813;49.686;21.766;2022-12-07T12:13:46;97842.53;;;2.32;100.00
35226;BME280;21813;49.686;21.766;2022-12-07T12:18:53;97850.16;;;2.34;100.00
35226;BME280;21813;49.686;21.766;2022-12-07T12:21:27;97845.03;;;2.34;100.00
35226;BME280;21813;49.686;21.766;2022-12-07T12:24:00;97859.63;;;2.33;100.00
35226;BME280;21813;49.686;21.766;2022-12-07T12:26:33;97845.03;;;2.34;100.00
35226;BME280;21813;49.686;21.766;2022-12-07T12:29:15;97853.50;;;2.36;100.00
35226;BME280;21813;49.686;21.766;2022-12-07T12:32:17;97850.91;;;2.36;100.00
35226;BME280;21813;49.686;21.766;2022-12-07T12:48:00;97858.97;;;2.30;100.00
35226;BME280;21813;49.686;21.766;2022-12-07T12:50:38;97858.06;;;2.31;100.00
35226;BME280;21813;49.686;21.766;2022-12-07T12:53:25;97855.72;;;2.26;100.00
35226;BME280;21813;49.686;21.766;2022-12-07T12:56:14;97860.63;;;2.31;100.00
35226;BME280;21813;49.686;21.766;2022-12-07T12:58:47;97858.78;;;2.33;100.00
35226;BME280;21813;49.686;21.766;2022-12-07T13:03:59;97858.78;;;2.33;100.00
35226;BME280;21813;49.686;21.766;2022-12-07T13:09:04;97851.44;;;2.27;100.00
35226;BME280;21813;49.686;21.766;2022-12-07T13:11:38;97849.66;;;2.27;100.00
35226;BME280;21813;49.686;21.766;2022-12-07T13:20:04;97842.78;;;2.28;100.00
35226;BME280;21813;49.686;21.766;2022-12-07T13:25:19;97846.84;;;2.32;100.00
35226;BME280;21813;49.686;21.766;2022-12-07T13:28:15;97850.16;;;2.34;100.00
35226;BME280;21813;49.686;21.766;2022-12-07T13:30:54;97851.25;;;2.30;100.00
35226;BME280;21813;49.686;21.766;2022-12-07T13:33:27;97851.81;;;2.35;100.00
35226;BME280;21813;49.686;21.766;2022-12-07T13:36:08;97854.47;;;2.33;100.00
35226;BME280;21813;49.686;21.766;2022-12-07T13:39:27;97858.19;;;2.28;100.00
35226;BME280;21813;49.686;21.766;2022-12-07T13:41:57;97861.72;;;2.27;100.00
35226;BME280;21813;49.686;21.766;2022-12-07T13:44:25;97854.00;;;2.27;100.00
35226;BME280;21813;49.686;21.766;2022-12-07T13:47:15;97857.38;;;2.27;100.00
35226;BME280;21813;49.686;21.766;2022-12-07T13:49:58;97854.91;;;2.26;100.00
35226;BME280;21813;49.686;21.766;2022-12-07T13:52:43;97855.06;;;2.22;100.00
35226;BME280;21813;49.686;21.766;2022-12-07T13:55:15;97853.66;;;2.17;100.00
35226;BME280;21813;49.686;21.766;2022-12-07T13:57:52;97853.75;;;2.15;100.00
35226;BME280;21813;49.686;21.766;2022-12-07T14:00:26;97852.84;;;2.16;100.00
35226;BME280;21813;49.686;21.766;2022-12-07T14:02:58;97844.53;;;2.11;100.00
35226;BME280;21813;49.686;21.766;2022-12-07T14:05:32;97858.94;;;2.14;100.00
35226;BME280;21813;49.686;21.766;2022-12-07T14:08:04;97851.34;;;2.12;100.00
35226;BME280;21813;49.686;21.766;2022-12-07T14:10:57;97857.28;;;2.13;100.00
35226;BME280;21813;49.686;21.766;2022-12-07T14:17:27;97854.41;;;2.03;100.00
35226;BME280;21813;49.686;21.766;2022-12-07T14:22:41;97861.94;;;2.06;100.00
35226;BME280;21813;49.686;21.766;2022-12-07T14:25:20;97872.41;;;2.03;100.00
35226;BME280;21813;49.686;21.766;2022-12-07T14:28:34;97863.75;;;2.04;100.00
35226;BME280;21813;49.686;21.766;2022-12-07T14:31:02;97856.16;;;2.03;100.00
35226;BME280;21813;49.686;21.766;2022-12-07T14:36:33;97874.03;;;2.04;100.00
35226;BME280;21813;49.686;21.766;2022-12-07T14:39:09;97858.97;;;1.98;100.00
35226;BME280;21813;49.686;21.766;2022-12-07T14:41:35;97862.91;;;2.04;100.00
35226;BME280;21813;49.686;21.766;2022-12-07T14:44:32;97862.13;;;2.03;100.00
35226;BME280;21813;49.686;21.766;2022-12-07T14:46:59;97862.25;;;2.00;100.00
35226;BME280;21813;49.686;21.766;2022-12-07T14:49:29;97869.25;;;1.98;100.00
35226;BME280;21813;49.686;21.766;2022-12-07T14:51:55;97869.38;;;1.95;100.00
35226;BME280;21813;49.686;21.766;2022-12-07T15:23:21;97870.47;;;1.91;100.00
35226;BME280;21813;49.686;21.766;2022-12-07T15:29:38;97873.22;;;1.88;100.00
35226;BME280;21813;49.686;21.766;2022-12-07T15:32:43;97866.59;;;1.84;100.00
35226;BME280;21813;49.686;21.766;2022-12-07T15:38:49;97870.53;;;1.90;100.00
35226;BME280;21813;49.686;21.766;2022-12-07T15:47:15;97876.69;;;1.87;100.00
35226;BME280;21813;49.686;21.766;2022-12-07T15:50:29;97877.75;;;1.83;100.00
35226;BME280;21813;49.686;21.766;2022-12-07T15:52:56;97879.56;;;1.81;100.00
35226;BME280;21813;49.686;21.766;2022-12-07T15:55:30;97883.97;;;1.79;100.00
35226;BME280;21813;49.686;21.766;2022-12-07T15:58:11;97890.00;;;1.78;100.00
35226;BME280;21813;49.686;21.766;2022-12-07T16:00:50;97890.78;;;1.80;100.00
35226;BME280;21813;49.686;21.766;2022-12-07T16:03:29;97888.22;;;1.80;100.00
35226;BME280;21813;49.686;21.766;2022-12-07T16:06:01;97893.41;;;1.78;100.00
35226;BME280;21813;49.686;21.766;2022-12-07T16:08:30;97888.28;;;1.78;100.00
35226;BME280;21813;49.686;21.766;2022-12-07T16:11:22;97897.53;;;1.81;100.00
35226;BME280;21813;49.686;21.766;2022-12-07T16:13:57;97896.72;;;1.81;100.00
35226;BME280;21813;49.686;21.766;2022-12-07T16:16:22;97899.38;;;1.79;100.00
35226;BME280;21813;49.686;21.766;2022-12-07T16:18:50;97890.19;;;1.75;100.00
35226;BME280;21813;49.686;21.766;2022-12-07T16:21:16;97895.31;;;1.75;100.00
35226;BME280;21813;49.686;21.766;2022-12-07T16:23:44;97899.53;;;1.76;100.00
35226;BME280;21813;49.686;21.766;2022-12-07T16:26:16;97894.72;;;1.70;100.00